sensor_id;sensor_type;location;lat;lon;timestamp;pressure;altitude;pressure_sealevel;temperature;humidity
74103;BME280;62853;46.166;3.640;2024-03-06T00:00:05;101607.16;;;9.45;100.00
74103;BME280;62853;46.166;3.640;2024-03-06T00:02:33;101608.06;;;9.44;100.00
74103;BME280;62853;46.166;3.640;2024-03-06T00:04:59;101615.94;;;9.44;100.00
74103;BME280;62853;46.166;3.640;2024-03-06T00:07:24;101614.34;;;9.40;100.00
74103;BME280;62853;46.166;3.640;2024-03-06T00:09:50;101620.50;;;9.39;100.00
74103;BME280;62853;46.166;3.640;2024-03-06T00:12:16;101617.03;;;9.38;100.00
74103;BME280;62853;46.166;3.640;2024-03-06T00:14:41;101617.88;;;9.39;100.00
74103;BME280;62853;46.166;3.640;2024-03-06T00:17:06;101618.88;;;9.36;100.00
74103;BME280;62853;46.166;3.640;2024-03-06T00:19:33;101626.88;;;9.33;100.00
74103;BME280;62853;46.166;3.640;2024-03-06T00:22:00;101623.41;;;9.33;100.00
74103;BME280;62853;46.166;3.640;2024-03-06T00:24:26;101626.03;;;9.33;100.00
74103;BME280;62853;46.166;3.640;2024-03-06T00:26:51;101636.59;;;9.31;100.00
74103;BME280;62853;46.166;3.640;2024-03-06T00:29:17;101633.97;;;9.31;100.00
74103;BME280;62853;46.166;3.640;2024-03-06T00:31:44;101634.81;;;9.31;100.00
74103;BME280;62853;46.166;3.640;2024-03-06T00:34:12;101643.59;;;9.30;100.00
74103;BME280;62853;46.166;3.640;2024-03-06T00:36:42;101637.44;;;9.31;100.00
74103;BME280;62853;46.166;3.640;2024-03-06T00:39:08;101643.59;;;9.30;100.00
74103;BME280;62853;46.166;3.640;2024-03-06T00:41:35;101638.34;;;9.30;100.00
74103;BME280;62853;46.166;3.640;2024-03-06T00:44:00;101644.59;;;9.28;100.00
74103;BME280;62853;46.166;3.640;2024-03-06T00:46:26;101651.53;;;9.29;100.00
74103;BME280;62853;46.166;3.640;2024-03-06T00:48:51;101641.16;;;9.26;100.00
74103;BME280;62853;46.166;3.640;2024-03-06T00:51:17;101642.00;;;9.26;100.00
74103;BME280;62853;46.166;3.640;2024-03-06T00:53:42;101646.47;;;9.24;100.00
74103;BME280;62853;46.166;3.640;2024-03-06T00:56:08;101636.91;;;9.22;100.00
74103;BME280;62853;46.166;3.640;2024-03-06T00:58:33;101642.13;;;9.23;100.00
74103;BME280;62853;46.166;3.640;2024-03-06T01:00:58;101641.31;;;9.21;100.00
74103;BME280;62853;46.166;3.640;2024-03-06T01:03:24;101640.47;;;9.21;100.00
74103;BME280;62853;46.166;3.640;2024-03-06T01:05:50;101657.13;;;9.20;100.00
74103;BME280;62853;46.166;3.640;2024-03-06T01:08:17;101651.88;;;9.20;100.00
74103;BME280;62853;46.166;3.640;2024-03-06T01:10:43;101655.38;;;9.20;100.00
74103;BME280;62853;46.166;3.640;2024-03-06T01:13:09;101655.25;;;9.23;100.00
74103;BME280;62853;46.166;3.640;2024-03-06T01:15:36;101656.09;;;9.24;100.00
74103;BME280;62853;46.166;3.640;2024-03-06T01:18:01;101654.47;;;9.21;100.00
74103;BME280;62853;46.166;3.640;2024-03-06T01:20:28;101655.22;;;9.25;100.00
74103;BME280;62853;46.166;3.640;2024-03-06T01:22:53;101657.88;;;9.23;100.00
74103;BME280;62853;46.166;3.640;2024-03-06T01:25:18;101652.69;;;9.22;100.00
74103;BME280;62853;46.166;3.640;2024-03-06T01:27:44;101653.63;;;9.21;100.00
74103;BME280;62853;46.166;3.640;2024-03-06T01:30:09;101660.66;;;9.19;100.00
74103;BME280;62853;46.166;3.640;2024-03-06T01:32:35;101654.66;;;9.15;100.00
74103;BME280;62853;46.166;3.640;2024-03-06T01:35:00;101667.81;;;9.15;100.00
74103;BME280;62853;46.166;3.640;2024-03-06T01:37:26;101660.78;;;9.16;100.00
74103;BME280;62853;46.166;3.640;2024-03-06T01:39:51;101674.00;;;9.14;100.00
74103;BME280;62853;46.166;3.640;2024-03-06T01:42:17;101667.97;;;9.10;100.00
74103;BME280;62853;46.166;3.640;2024-03-06T01:44:43;101669.75;;;9.10;100.00
74103;BME280;62853;46.166;3.640;2024-03-06T01:47:08;101670.66;;;9.09;100.00
74103;BME280;62853;46.166;3.640;2024-03-06T01:49:34;101670.72;;;9.07;100.00
74103;BME280;62853;46.166;3.640;2024-03-06T01:52:00;101668.94;;;9.08;100.00
74103;BME280;62853;46.166;3.640;2024-03-06T01:54:26;101681.25;;;9.07;100.00
74103;BME280;62853;46.166;3.640;2024-03-06T01:56:52;101669.84;;;9.07;100.00
74103;BME280;62853;46.166;3.640;2024-03-06T01:59:21;101676.88;;;9.06;100.00
74103;BME280;62853;46.166;3.640;2024-03-06T02:01:52;101682.13;;;9.06;100.00
74103;BME280;62853;46.166;3.640;2024-03-06T02:04:19;101683.09;;;9.04;100.00
74103;BME280;62853;46.166;3.640;2024-03-06T02:06:45;101689.22;;;9.04;100.00
74103;BME280;62853;46.166;3.640;2024-03-06T02:09:12;101690.97;;;9.04;100.00
74103;BME280;62853;46.166;3.640;2024-03-06T02:11:39;101701.56;;;9.02;100.00
74103;BME280;62853;46.166;3.640;2024-03-06T02:14:05;101705.94;;;9.02;100.00
74103;BME280;62853;46.166;3.640;2024-03-06T02:16:35;101710.41;;;9.00;100.00
74103;BME280;62853;46.166;3.640;2024-03-06T02:19:00;101698.16;;;8.99;100.00
74103;BME280;62853;46.166;3.640;2024-03-06T02:21:26;101706.91;;;8.99;100.00
74103;BME280;62853;46.166;3.640;2024-03-06T02:23:51;101709.50;;;9.01;100.00
74103;BME280;62853;46.166;3.640;2024-03-06T02:26:18;101712.97;;;9.01;100.00
74103;BME280;62853;46.166;3.640;2024-03-06T02:29:01;101713.81;;;9.02;100.00
74103;BME280;62853;46.166;3.640;2024-03-06T02:31:26;101717.44;;;8.99;100.00
74103;BME280;62853;46.166;3.640;2024-03-06T02:33:52;101709.50;;;9.01;100.00
74103;BME280;62853;46.166;3.640;2024-03-06T02:36:18;101706.88;;;9.01;100.00
74103;BME280;62853;46.166;3.640;2024-03-06T02:38:44;101711.28;;;8.99;100.00
74103;BME280;62853;46.166;3.640;2024-03-06T02:41:11;101716.56;;;8.99;100.00
74103;BME280;62853;46.166;3.640;2024-03-06T02:43:37;101713.97;;;8.97;100.00
74103;BME280;62853;46.166;3.640;2024-03-06T02:46:03;101711.28;;;8.99;100.00
74103;BME280;62853;46.166;3.640;2024-03-06T02:48:28;101709.44;;;9.02;100.00
74103;BME280;62853;46.166;3.640;2024-03-06T02:50:54;101709.38;;;9.04;100.00
74103;BME280;62853;46.166;3.640;2024-03-06T02:53:20;101709.44;;;9.02;100.00
74103;BME280;62853;46.166;3.640;2024-03-06T02:55:45;101705.03;;;9.03;100.00
74103;BME280;62853;46.166;3.640;2024-03-06T02:58:11;101705.09;;;9.01;100.00
74103;BME280;62853;46.166;3.640;2024-03-06T03:00:36;101707.72;;;9.01;100.00
74103;BME280;62853;46.166;3.640;2024-03-06T03:03:04;101708.63;;;9.00;100.00
74103;BME280;62853;46.166;3.640;2024-03-06T03:05:29;101707.78;;;9.00;100.00
74103;BME280;62853;46.166;3.640;2024-03-06T03:07:55;101708.56;;;9.02;100.00
74103;BME280;62853;46.166;3.640;2024-03-06T03:10:20;101706.69;;;9.05;100.00
74103;BME280;62853;46.166;3.640;2024-03-06T03:12:45;101706.75;;;9.04;100.00
74103;BME280;62853;46.166;3.640;2024-03-06T03:15:11;101705.03;;;9.03;100.00
74103;BME280;62853;46.166;3.640;2024-03-06T03:17:36;101705.03;;;9.03;100.00
74103;BME280;62853;46.166;3.640;2024-03-06T03:20:02;101711.91;;;9.07;100.00
74103;BME280;62853;46.166;3.640;2024-03-06T03:22:44;101718.09;;;9.06;100.00
74103;BME280;62853;46.166;3.640;2024-03-06T03:25:10;101717.19;;;9.05;100.00
74103;BME280;62853;46.166;3.640;2024-03-06T03:27:40;101719.97;;;9.02;100.00
74103;BME280;62853;46.166;3.640;2024-03-06T03:30:09;101719.97;;;9.02;100.00
74103;BME280;62853;46.166;3.640;2024-03-06T03:32:35;101717.34;;;9.02;100.00
74103;BME280;62853;46.166;3.640;2024-03-06T03:35:00;101715.66;;;9.00;100.00
74103;BME280;62853;46.166;3.640;2024-03-06T03:37:26;101720.91;;;9.00;100.00
74103;BME280;62853;46.166;3.640;2024-03-06T03:39:51;101711.28;;;8.99;100.00
74103;BME280;62853;46.166;3.640;2024-03-06T03:42:16;101715.69;;;8.98;100.00
74103;BME280;62853;46.166;3.640;2024-03-06T03:44:42;101720.06;;;8.99;100.00
74103;BME280;62853;46.166;3.640;2024-03-06T03:47:07;101723.59;;;8.98;100.00
74103;BME280;62853;46.166;3.640;2024-03-06T03:49:33;101727.19;;;8.96;100.00
74103;BME280;62853;46.166;3.640;2024-03-06T03:51:59;101730.56;;;8.99;100.00
74103;BME280;62853;46.166;3.640;2024-03-06T03:54:24;101726.16;;;9.00;100.00
74103;BME280;62853;46.166;3.640;2024-03-06T03:56:50;101727.09;;;8.97;100.00
74103;BME280;62853;46.166;3.640;2024-03-06T03:59:15;101724.63;;;8.94;100.00
74103;BME280;62853;46.166;3.640;2024-03-06T04:01:40;101728.13;;;8.93;100.00
74103;BME280;62853;46.166;3.640;2024-03-06T04:04:06;101724.66;;;8.92;100.00
74103;BME280;62853;46.166;3.640;2024-03-06T04:06:33;101725.47;;;8.94;100.00
74103;BME280;62853;46.166;3.640;2024-03-06T04:08:58;101728.19;;;8.91;100.00
74103;BME280;62853;46.166;3.640;2024-03-06T04:11:24;101730.91;;;8.88;100.00
74103;BME280;62853;46.166;3.640;2024-03-06T04:13:49;101729.25;;;8.86;100.00
74103;BME280;62853;46.166;3.640;2024-03-06T04:16:17;101732.78;;;8.85;100.00
74103;BME280;62853;46.166;3.640;2024-03-06T04:18:44;101734.56;;;8.84;100.00
74103;BME280;62853;46.166;3.640;2024-03-06T04:21:10;101733.63;;;8.85;100.00
74103;BME280;62853;46.166;3.640;2024-03-06T04:23:36;101734.47;;;8.87;100.00
74103;BME280;62853;46.166;3.640;2024-03-06T04:26:01;101741.47;;;8.87;100.00
74103;BME280;62853;46.166;3.640;2024-03-06T04:28:28;101742.44;;;8.84;100.00
74103;BME280;62853;46.166;3.640;2024-03-06T04:30:54;101752.03;;;8.85;100.00
74103;BME280;62853;46.166;3.640;2024-03-06T04:33:19;101746.78;;;8.85;100.00
74103;BME280;62853;46.166;3.640;2024-03-06T04:35:45;101756.38;;;8.86;100.00
74103;BME280;62853;46.166;3.640;2024-03-06T04:38:10;101762.44;;;8.88;100.00
74103;BME280;62853;46.166;3.640;2024-03-06T04:40:36;101755.44;;;8.89;100.00
74103;BME280;62853;46.166;3.640;2024-03-06T04:43:01;101762.38;;;8.90;100.00
74103;BME280;62853;46.166;3.640;2024-03-06T04:45:27;101770.31;;;8.88;100.00
74103;BME280;62853;46.166;3.640;2024-03-06T04:47:54;101774.78;;;8.86;100.00
74103;BME280;62853;46.166;3.640;2024-03-06T04:50:19;101775.56;;;8.88;100.00
74103;BME280;62853;46.166;3.640;2024-03-06T04:52:44;101783.50;;;8.87;100.00
74103;BME280;62853;46.166;3.640;2024-03-06T04:55:10;101787.94;;;8.85;100.00
74103;BME280;62853;46.166;3.640;2024-03-06T04:57:36;101787.16;;;8.83;100.00
74103;BME280;62853;46.166;3.640;2024-03-06T05:00:02;101793.25;;;8.83;100.00
74103;BME280;62853;46.166;3.640;2024-03-06T05:02:31;101795.03;;;8.83;100.00
74103;BME280;62853;46.166;3.640;2024-03-06T05:04:59;101800.25;;;8.84;100.00
74103;BME280;62853;46.166;3.640;2024-03-06T05:07:26;101802.09;;;8.81;100.00
74103;BME280;62853;46.166;3.640;2024-03-06T05:09:51;101799.44;;;8.82;100.00
74103;BME280;62853;46.166;3.640;2024-03-06T05:12:17;101804.72;;;8.81;100.00
74103;BME280;62853;46.166;3.640;2024-03-06T05:14:42;101811.91;;;8.75;100.00
74103;BME280;62853;46.166;3.640;2024-03-06T05:17:07;101811.19;;;8.70;100.00
74103;BME280;62853;46.166;3.640;2024-03-06T05:19:35;101812.03;;;8.71;100.00
74103;BME280;62853;46.166;3.640;2024-03-06T05:22:01;101814.66;;;8.71;100.00
74103;BME280;62853;46.166;3.640;2024-03-06T05:24:26;101814.66;;;8.71;100.00
74103;BME280;62853;46.166;3.640;2024-03-06T05:26:52;101824.19;;;8.73;100.00
74103;BME280;62853;46.166;3.640;2024-03-06T05:29:20;101818.91;;;8.75;100.00
74103;BME280;62853;46.166;3.640;2024-03-06T05:31:45;101822.41;;;8.75;100.00
74103;BME280;62853;46.166;3.640;2024-03-06T05:34:10;101820.63;;;8.76;100.00
74103;BME280;62853;46.166;3.640;2024-03-06T05:36:36;101816.22;;;8.77;100.00
74103;BME280;62853;46.166;3.640;2024-03-06T05:39:01;101828.50;;;8.76;100.00
74103;BME280;62853;46.166;3.640;2024-03-06T05:41:30;101834.63;;;8.77;100.00
74103;BME280;62853;46.166;3.640;2024-03-06T05:43:55;101837.25;;;8.77;100.00
74103;BME280;62853;46.166;3.640;2024-03-06T05:46:21;101840.78;;;8.75;100.00
74103;BME280;62853;46.166;3.640;2024-03-06T05:48:47;101850.41;;;8.75;100.00
74103;BME280;62853;46.166;3.640;2024-03-06T05:51:12;101845.22;;;8.73;100.00
74103;BME280;62853;46.166;3.640;2024-03-06T05:53:37;101855.84;;;8.70;100.00
74103;BME280;62853;46.166;3.640;2024-03-06T05:56:08;101858.50;;;8.69;100.00
74103;BME280;62853;46.166;3.640;2024-03-06T05:58:33;101860.25;;;8.68;100.00
74103;BME280;62853;46.166;3.640;2024-03-06T06:01:02;101865.47;;;8.70;100.00
74103;BME280;62853;46.166;3.640;2024-03-06T06:03:29;101872.50;;;8.69;100.00
74103;BME280;62853;46.166;3.640;2024-03-06T06:05:55;101879.66;;;8.64;100.00
74103;BME280;62853;46.166;3.640;2024-03-06T06:08:20;101877.97;;;8.62;100.00
74103;BME280;62853;46.166;3.640;2024-03-06T06:10:46;101877.97;;;8.62;100.00
74103;BME280;62853;46.166;3.640;2024-03-06T06:13:11;101879.78;;;8.60;100.00
74103;BME280;62853;46.166;3.640;2024-03-06T06:15:36;101870.25;;;8.57;100.00
74103;BME280;62853;46.166;3.640;2024-03-06T06:18:02;101883.41;;;8.55;100.00
74103;BME280;62853;46.166;3.640;2024-03-06T06:20:28;101881.66;;;8.56;100.00
74103;BME280;62853;46.166;3.640;2024-03-06T06:22:53;101886.91;;;8.56;100.00
74103;BME280;62853;46.166;3.640;2024-03-06T06:25:18;101881.66;;;8.56;100.00
74103;BME280;62853;46.166;3.640;2024-03-06T06:27:44;101887.69;;;8.58;100.00
74103;BME280;62853;46.166;3.640;2024-03-06T06:30:09;101889.47;;;8.57;100.00
74103;BME280;62853;46.166;3.640;2024-03-06T06:32:37;101897.41;;;8.56;100.00
74103;BME280;62853;46.166;3.640;2024-03-06T06:35:04;101894.00;;;8.52;100.00
74103;BME280;62853;46.166;3.640;2024-03-06T06:37:29;101904.63;;;8.48;100.00
74103;BME280;62853;46.166;3.640;2024-03-06T06:39:55;101909.03;;;8.47;100.00
74103;BME280;62853;46.166;3.640;2024-03-06T06:42:20;101910.78;;;8.48;100.00
74103;BME280;62853;46.166;3.640;2024-03-06T06:44:45;101917.72;;;8.49;100.00
74103;BME280;62853;46.166;3.640;2024-03-06T06:47:11;101922.09;;;8.50;100.00
74103;BME280;62853;46.166;3.640;2024-03-06T06:49:36;101918.53;;;8.51;100.00
74103;BME280;62853;46.166;3.640;2024-03-06T06:52:01;101922.84;;;8.54;100.00
74103;BME280;62853;46.166;3.640;2024-03-06T06:54:28;101920.25;;;8.52;100.00
74103;BME280;62853;46.166;3.640;2024-03-06T06:56:53;101925.50;;;8.52;100.00
74103;BME280;62853;46.166;3.640;2024-03-06T06:59:19;101927.28;;;8.52;100.00
74103;BME280;62853;46.166;3.640;2024-03-06T07:01:45;101928.19;;;8.51;100.00
74103;BME280;62853;46.166;3.640;2024-03-06T07:04:11;101939.53;;;8.51;100.00
74103;BME280;62853;46.166;3.640;2024-03-06T07:06:36;101940.38;;;8.53;100.00
74103;BME280;62853;46.166;3.640;2024-03-06T07:09:01;101936.81;;;8.54;100.00
74103;BME280;62853;46.166;3.640;2024-03-06T07:11:29;101952.53;;;8.56;100.00
74103;BME280;62853;46.166;3.640;2024-03-06T07:13:54;101944.66;;;8.56;100.00
74103;BME280;62853;46.166;3.640;2024-03-06T07:16:20;101951.69;;;8.55;100.00
74103;BME280;62853;46.166;3.640;2024-03-06T07:18:45;101949.06;;;8.55;100.00
74103;BME280;62853;46.166;3.640;2024-03-06T07:21:11;101958.72;;;8.55;100.00
74103;BME280;62853;46.166;3.640;2024-03-06T07:23:37;101958.72;;;8.55;100.00
74103;BME280;62853;46.166;3.640;2024-03-06T07:26:02;101968.28;;;8.56;100.00
74103;BME280;62853;46.166;3.640;2024-03-06T07:28:27;101962.16;;;8.57;100.00
74103;BME280;62853;46.166;3.640;2024-03-06T07:30:53;101967.41;;;8.57;100.00
74103;BME280;62853;46.166;3.640;2024-03-06T07:33:18;101968.22;;;8.59;100.00
74103;BME280;62853;46.166;3.640;2024-03-06T07:35:43;101966.53;;;8.56;100.00
74103;BME280;62853;46.166;3.640;2024-03-06T07:38:09;101973.47;;;8.59;100.00
74103;BME280;62853;46.166;3.640;2024-03-06T07:40:35;101975.19;;;8.60;100.00
74103;BME280;62853;46.166;3.640;2024-03-06T07:43:00;101971.66;;;8.61;100.00
74103;BME280;62853;46.166;3.640;2024-03-06T07:45:26;101975.09;;;8.63;100.00
74103;BME280;62853;46.166;3.640;2024-03-06T07:47:52;101973.31;;;8.65;100.00
74103;BME280;62853;46.166;3.640;2024-03-06T07:50:17;101976.78;;;8.66;100.00
74103;BME280;62853;46.166;3.640;2024-03-06T07:52:47;101986.41;;;8.67;100.00
74103;BME280;62853;46.166;3.640;2024-03-06T07:55:13;101985.47;;;8.68;100.00
74103;BME280;62853;46.166;3.640;2024-03-06T07:57:38;101988.91;;;8.70;100.00
74103;BME280;62853;46.166;3.640;2024-03-06T08:00:07;101990.63;;;8.71;100.00
74103;BME280;62853;46.166;3.640;2024-03-06T08:02:42;102001.03;;;8.75;100.00
74103;BME280;62853;46.166;3.640;2024-03-06T08:05:15;102002.72;;;8.77;100.00
74103;BME280;62853;46.166;3.640;2024-03-06T08:07:41;102003.56;;;8.79;100.00
74103;BME280;62853;46.166;3.640;2024-03-06T08:10:10;102002.53;;;8.84;100.00
74103;BME280;62853;46.166;3.640;2024-03-06T08:12:40;102008.50;;;8.89;100.00
74103;BME280;62853;46.166;3.640;2024-03-06T08:15:07;102004.00;;;8.93;100.00
74103;BME280;62853;46.166;3.640;2024-03-06T08:17:35;102012.75;;;8.93;100.00
74103;BME280;62853;46.166;3.640;2024-03-06T08:20:02;102015.41;;;8.92;100.00
74103;BME280;62853;46.166;3.640;2024-03-06T08:22:28;102015.50;;;8.90;100.00
74103;BME280;62853;46.166;3.640;2024-03-06T08:24:53;102015.50;;;8.90;100.00
74103;BME280;62853;46.166;3.640;2024-03-06T08:27:20;102018.00;;;8.93;100.00
74103;BME280;62853;46.166;3.640;2024-03-06T08:29:45;102024.03;;;8.97;100.00
74103;BME280;62853;46.166;3.640;2024-03-06T08:32:11;102023.84;;;9.03;100.00
74103;BME280;62853;46.166;3.640;2024-03-06T08:34:36;102032.44;;;9.10;100.00
74103;BME280;62853;46.166;3.640;2024-03-06T08:37:01;102027.00;;;9.16;100.00
74103;BME280;62853;46.166;3.640;2024-03-06T08:39:27;102030.34;;;9.21;100.00
74103;BME280;62853;46.166;3.640;2024-03-06T08:41:53;102033.66;;;9.28;100.00
74103;BME280;62853;46.166;3.640;2024-03-06T08:44:18;102035.22;;;9.34;100.00
74103;BME280;62853;46.166;3.640;2024-03-06T08:46:43;102043.84;;;9.39;100.00
74103;BME280;62853;46.166;3.640;2024-03-06T08:49:08;102041.06;;;9.43;100.00
74103;BME280;62853;46.166;3.640;2024-03-06T08:51:34;102047.03;;;9.48;100.00
74103;BME280;62853;46.166;3.640;2024-03-06T08:53:59;102043.41;;;9.53;100.00
74103;BME280;62853;46.166;3.640;2024-03-06T08:56:25;102046.81;;;9.56;100.00
74103;BME280;62853;46.166;3.640;2024-03-06T08:58:51;102053.75;;;9.59;100.00
74103;BME280;62853;46.166;3.640;2024-03-06T09:01:16;102053.69;;;9.60;100.00
74103;BME280;62853;46.166;3.640;2024-03-06T09:03:41;102052.72;;;9.63;100.00
74103;BME280;62853;46.166;3.640;2024-03-06T09:06:07;102058.81;;;9.65;100.00
74103;BME280;62853;46.166;3.640;2024-03-06T09:08:32;102063.09;;;9.67;100.00
74103;BME280;62853;46.166;3.640;2024-03-06T09:10:58;102061.28;;;9.69;100.00
74103;BME280;62853;46.166;3.640;2024-03-06T09:13:25;102058.59;;;9.71;100.00
74103;BME280;62853;46.166;3.640;2024-03-06T09:15:50;102064.72;;;9.73;100.00
74103;BME280;62853;46.166;3.640;2024-03-06T09:18:15;102070.81;;;9.74;100.00
74103;BME280;62853;46.166;3.640;2024-03-06T09:20:41;102072.53;;;9.75;100.00
74103;BME280;62853;46.166;3.640;2024-03-06T09:23:08;102063.72;;;9.76;100.00
74103;BME280;62853;46.166;3.640;2024-03-06T09:25:34;102076.84;;;9.77;100.00
74103;BME280;62853;46.166;3.640;2024-03-06T09:27:59;102071.56;;;9.77;100.00
74103;BME280;62853;46.166;3.640;2024-03-06T09:30:25;102075.06;;;9.78;100.00
74103;BME280;62853;46.166;3.640;2024-03-06T09:32:51;102076.84;;;9.77;100.00
74103;BME280;62853;46.166;3.640;2024-03-06T09:35:16;102076.00;;;9.77;100.00
74103;BME280;62853;46.166;3.640;2024-03-06T09:37:42;102078.63;;;9.77;100.00
74103;BME280;62853;46.166;3.640;2024-03-06T09:40:09;102079.44;;;9.79;100.00
74103;BME280;62853;46.166;3.640;2024-03-06T09:42:36;102081.16;;;9.80;100.00
74103;BME280;62853;46.166;3.640;2024-03-06T09:45:01;102076.69;;;9.82;100.00
74103;BME280;62853;46.166;3.640;2024-03-06T09:47:27;102084.56;;;9.83;100.00
74103;BME280;62853;46.166;3.640;2024-03-06T09:49:56;102088.84;;;9.86;100.00
74103;BME280;62853;46.166;3.640;2024-03-06T09:52:23;102088.84;;;9.86;100.00
74103;BME280;62853;46.166;3.640;2024-03-06T09:54:50;102098.50;;;9.85;100.00
74103;BME280;62853;46.166;3.640;2024-03-06T09:57:17;102088.03;;;9.84;100.00
74103;BME280;62853;46.166;3.640;2024-03-06T09:59:42;102097.66;;;9.85;100.00
74103;BME280;62853;46.166;3.640;2024-03-06T10:04:50;102101.94;;;9.87;100.00
74103;BME280;62853;46.166;3.640;2024-03-06T10:07:16;102104.59;;;9.87;100.00
74103;BME280;62853;46.166;3.640;2024-03-06T10:09:42;102102.81;;;9.88;100.00
74103;BME280;62853;46.166;3.640;2024-03-06T10:12:12;102105.38;;;9.90;100.00
74103;BME280;62853;46.166;3.640;2024-03-06T10:14:37;102112.38;;;9.91;100.00
74103;BME280;62853;46.166;3.640;2024-03-06T10:17:02;102111.50;;;9.92;100.00
74103;BME280;62853;46.166;3.640;2024-03-06T10:19:29;102110.56;;;9.93;100.00
74103;BME280;62853;46.166;3.640;2024-03-06T10:21:58;102108.72;;;9.95;100.00
74103;BME280;62853;46.166;3.640;2024-03-06T10:24:25;102106.94;;;9.97;100.00
74103;BME280;62853;46.166;3.640;2024-03-06T10:26:52;102113.91;;;9.98;100.00
74103;BME280;62853;46.166;3.640;2024-03-06T10:29:21;102113.91;;;9.98;100.00
74103;BME280;62853;46.166;3.640;2024-03-06T10:31:57;102114.88;;;9.95;100.00
74103;BME280;62853;46.166;3.640;2024-03-06T10:34:24;102112.25;;;9.95;100.00
74103;BME280;62853;46.166;3.640;2024-03-06T10:36:58;102109.63;;;9.95;100.00
74103;BME280;62853;46.166;3.640;2024-03-06T10:39:24;102116.59;;;9.96;100.00
74103;BME280;62853;46.166;3.640;2024-03-06T10:41:54;102110.34;;;10.00;100.00
74103;BME280;62853;46.166;3.640;2024-03-06T10:44:26;102111.13;;;10.02;100.00
74103;BME280;62853;46.166;3.640;2024-03-06T10:46:59;102117.16;;;10.06;100.00
74103;BME280;62853;46.166;3.640;2024-03-06T10:49:29;102107.38;;;10.10;100.00
74103;BME280;62853;46.166;3.640;2024-03-06T10:52:04;102111.66;;;10.14;100.00
74103;BME280;62853;46.166;3.640;2024-03-06T10:54:34;102117.69;;;10.17;100.00
74103;BME280;62853;46.166;3.640;2024-03-06T10:57:08;102112.31;;;10.20;100.00
74103;BME280;62853;46.166;3.640;2024-03-06T10:59:34;102122.69;;;10.25;100.00
74103;BME280;62853;46.166;3.640;2024-03-06T11:02:00;102117.38;;;10.27;100.00
74103;BME280;62853;46.166;3.640;2024-03-06T11:04:29;102116.41;;;10.29;100.00
74103;BME280;62853;46.166;3.640;2024-03-06T11:06:59;102119.84;;;10.33;100.00
74103;BME280;62853;46.166;3.640;2024-03-06T11:09:26;102114.56;;;10.33;100.00
74103;BME280;62853;46.166;3.640;2024-03-06T11:11:53;102116.34;;;10.32;100.00
74103;BME280;62853;46.166;3.640;2024-03-06T11:14:21;102118.09;;;10.32;100.00
74103;BME280;62853;46.166;3.640;2024-03-06T11:17:04;102119.84;;;10.33;100.00
74103;BME280;62853;46.166;3.640;2024-03-06T11:19:31;102127.63;;;10.36;100.00
74103;BME280;62853;46.166;3.640;2024-03-06T11:21:57;102120.50;;;10.39;100.00
74103;BME280;62853;46.166;3.640;2024-03-06T11:24:24;102117.81;;;10.41;100.00
74103;BME280;62853;46.166;3.640;2024-03-06T11:26:59;102125.56;;;10.46;100.00
74103;BME280;62853;46.166;3.640;2024-03-06T11:29:28;102129.00;;;10.48;100.00
74103;BME280;62853;46.166;3.640;2024-03-06T11:32:07;102125.44;;;10.49;100.00
74103;BME280;62853;46.166;3.640;2024-03-06T11:34:34;102128.91;;;10.51;100.00
74103;BME280;62853;46.166;3.640;2024-03-06T11:37:03;102135.03;;;10.51;100.00
74103;BME280;62853;46.166;3.640;2024-03-06T11:39:33;102125.34;;;10.52;100.00
74103;BME280;62853;46.166;3.640;2024-03-06T11:41:59;102127.13;;;10.51;100.00
74103;BME280;62853;46.166;3.640;2024-03-06T11:44:26;102137.63;;;10.53;100.00
74103;BME280;62853;46.166;3.640;2024-03-06T11:47:01;102134.03;;;10.54;100.00
74103;BME280;62853;46.166;3.640;2024-03-06T11:49:31;102140.19;;;10.54;100.00
74103;BME280;62853;46.166;3.640;2024-03-06T11:52:08;102140.16;;;10.56;100.00
74103;BME280;62853;46.166;3.640;2024-03-06T11:54:34;102141.00;;;10.56;100.00
74103;BME280;62853;46.166;3.640;2024-03-06T11:57:02;102140.16;;;10.56;100.00
74103;BME280;62853;46.166;3.640;2024-03-06T11:59:36;102143.69;;;10.55;100.00
74103;BME280;62853;46.166;3.640;2024-03-06T12:02:05;102136.69;;;10.54;100.00
74103;BME280;62853;46.166;3.640;2024-03-06T12:04:32;102134.97;;;10.53;100.00
74103;BME280;62853;46.166;3.640;2024-03-06T12:07:05;102131.59;;;10.49;100.00
74103;BME280;62853;46.166;3.640;2024-03-06T12:09:35;102138.66;;;10.47;100.00
74103;BME280;62853;46.166;3.640;2024-03-06T12:12:01;102130.88;;;10.44;100.00
74103;BME280;62853;46.166;3.640;2024-03-06T12:14:27;102130.00;;;10.43;100.00
74103;BME280;62853;46.166;3.640;2024-03-06T12:17:00;102133.63;;;10.41;100.00
74103;BME280;62853;46.166;3.640;2024-03-06T12:19:31;102140.72;;;10.39;100.00
74103;BME280;62853;46.166;3.640;2024-03-06T12:22:03;102138.94;;;10.39;100.00
74103;BME280;62853;46.166;3.640;2024-03-06T12:24:29;102136.34;;;10.38;100.00
74103;BME280;62853;46.166;3.640;2024-03-06T12:27:06;102140.75;;;10.37;100.00
74103;BME280;62853;46.166;3.640;2024-03-06T12:29:32;102141.63;;;10.38;100.00
74103;BME280;62853;46.166;3.640;2024-03-06T12:32:01;102140.75;;;10.37;100.00
74103;BME280;62853;46.166;3.640;2024-03-06T12:34:28;102133.81;;;10.35;100.00
74103;BME280;62853;46.166;3.640;2024-03-06T12:36:55;102131.97;;;10.37;100.00
74103;BME280;62853;46.166;3.640;2024-03-06T12:39:23;102143.44;;;10.36;100.00
74103;BME280;62853;46.166;3.640;2024-03-06T12:41:51;102145.19;;;10.35;100.00
74103;BME280;62853;46.166;3.640;2024-03-06T12:44:16;102124.13;;;10.35;100.00
74103;BME280;62853;46.166;3.640;2024-03-06T12:46:42;102132.03;;;10.35;100.00